Flugplatz Erfurt

Bericht für EDDE

vom 20.10. um 18:20 UTC

Wind 3 kt aus 320°

Sichtweite 10 km oder mehr

gute Sicht, keine Wolken < 5000 ft, keine CB, keine Wettererscheinungen (CAVOK)

Temperatur 15.0°C

Taupunkt 12.0°C

Luftfeuchtigkeit 82%

Luftdruck 1010 hPa

keine wesentliche Wetteränderung innerhalb den nächsten 2 Stunden zu erwarten

EDDE 201820Z 32003KT 300V360 CAVOK 15/12 Q1010 NOSIG

Prognose für EDDE

vom 20.10. um 00:00 UTC

Zwischen 00:00 UTC und 00:00 UTC

variable Windrichtung mit 3 kt

Sichtweite 10 km oder mehr

keine signifikanten Wettererscheinungen

keine Wolken


Zwischen 00:00 und 00:00 UTC übergehend zu

Wind 5 kt aus 200°

Sichtweite 10 km oder mehr

keine signifikanten Wettererscheinungen

keine Wolken


Am 21.10. zwischen 00:00 und 00:00 UTC übergehend zu

Wind 8 kt aus 260°

Sichtweite 10 km oder mehr

keine signifikanten Wettererscheinungen

keine Wolken

TAF EDDE 201700Z 2018/2118 VRB03KT CAVOK BECMG 2019/2021 20005KT BECMG 2107/2110 26008KT
Impressum